Time;durP1;ratioP1;P1;durP2;ratioP2;P2;SDS_P1;SDS_P2;PMS_P1;PMS_P2;Temp;Humidity;BMP_temperature;BMP_pressure;BME280_temperature;BME280_humidity;BME280_pressure;Samples;Min_cycle;Max_cycle;Signal;HPM_P1;HPM_P2
2020/12/29 00:00:53;;;;;;;2.97;2.20;;;;;;;7.13;73.70;96802.28;1728042;82;25155;-77
2020/12/29 00:03:20;;;;;;;2.83;1.87;;;;;;;7.13;73.72;96788.41;1728283;81;25309;-77
2020/12/29 00:05:47;;;;;;;3.13;2.00;;;;;;;7.16;73.62;96792.00;1728125;81;25222;-77
2020/12/29 00:08:14;;;;;;;2.57;1.83;;;;;;;7.13;73.75;96794.94;1728243;82;25634;-77
2020/12/29 00:10:41;;;;;;;2.83;1.80;;;;;;;7.13;73.65;96794.94;1728314;82;25335;-77
2020/12/29 00:13:07;;;;;;;2.67;1.90;;;;;;;7.14;73.70;96779.56;1728412;81;25345;-78
2020/12/29 00:15:40;;;;;;;2.53;2.00;;;;;;;7.12;73.92;96777.61;1728204;81;25135;-76
2020/12/29 00:18:07;;;;;;;2.40;1.90;;;;;;;7.11;74.13;96774.20;1728201;82;25096;-75
2020/12/29 00:20:34;;;;;;;3.50;1.80;;;;;;;7.07;74.36;96772.88;1728245;82;25586;-75
2020/12/29 00:23:00;;;;;;;2.67;2.07;;;;;;;7.04;74.53;96770.63;1728336;82;25143;-77
2020/12/29 00:25:27;;;;;;;3.00;2.10;;;;;;;7.03;74.58;96767.17;1728132;81;25677;-76
2020/12/29 00:27:54;;;;;;;4.43;2.70;;;;;;;7.02;74.58;96766.03;1728335;81;25297;-76
2020/12/29 00:30:20;;;;;;;2.73;1.90;;;;;;;7.00;74.59;96770.12;1728427;82;25286;-76
2020/12/29 00:32:47;;;;;;;3.33;2.00;;;;;;;6.97;74.83;96773.09;1728355;82;26042;-76
2020/12/29 00:35:13;;;;;;;2.67;1.90;;;;;;;6.96;75.02;96777.98;1728459;81;25075;-76
2020/12/29 00:37:40;;;;;;;2.67;2.00;;;;;;;6.92;75.55;96775.39;1728328;81;25494;-76
2020/12/29 00:40:07;;;;;;;2.33;1.80;;;;;;;6.93;75.75;96775.69;1728375;82;25084;-76
2020/12/29 00:42:34;;;;;;;2.93;1.83;;;;;;;6.90;76.05;96764.27;1728327;81;25430;-76
2020/12/29 00:45:01;;;;;;;2.20;1.70;;;;;;;6.90;76.13;96772.60;1705488;83;25561;-75
2020/12/29 00:47:28;;;;;;;2.87;2.07;;;;;;;6.87;76.49;96775.88;1728371;82;25166;-75
2020/12/29 00:49:55;;;;;;;2.40;1.70;;;;;;;6.85;76.69;96770.01;1728476;81;25147;-76
2020/12/29 00:52:22;;;;;;;3.87;1.93;;;;;;;6.87;76.61;96761.98;1728259;81;25376;-75
2020/12/29 00:54:51;;;;;;;2.10;1.70;;;;;;;6.84;76.73;96765.75;1727639;82;25622;-74
2020/12/29 00:57:19;;;;;;;3.00;2.07;;;;;;;6.81;76.90;96769.19;1726792;81;25166;-76
2020/12/29 00:59:46;;;;;;;3.30;2.03;;;;;;;6.80;77.08;96774.08;1728402;81;25154;-75
2020/12/29 01:02:13;;;;;;;1.70;1.57;;;;;;;6.77;77.25;96763.95;1728318;81;25633;-76
2020/12/29 01:04:58;;;;;;;3.10;1.80;;;;;;;6.80;77.62;96756.59;1818564;78;26613;-76
2020/12/29 01:07:25;;;;;;;2.47;1.87;;;;;;;6.75;77.54;96764.62;1789529;79;25717;-75
2020/12/29 01:09:52;;;;;;;3.07;2.00;;;;;;;6.73;77.62;96768.70;1789664;80;25257;-75
2020/12/29 01:12:19;;;;;;;2.50;1.90;;;;;;;6.71;77.74;96768.55;1789359;79;25656;-78
2020/12/29 01:14:46;;;;;;;2.70;1.63;;;;;;;6.70;78.11;96759.88;1789503;79;25232;-76
2020/12/29 01:17:15;;;;;;;3.63;2.10;;;;;;;6.69;78.08;96765.61;1788449;79;25264;-76
2020/12/29 01:19:41;;;;;;;2.97;1.70;;;;;;;6.69;78.09;96765.61;1757761;80;25726;-76
2020/12/29 01:22:08;;;;;;;2.30;1.67;;;;;;;6.68;78.43;96775.72;1761351;81;25263;-76
2020/12/29 01:24:35;;;;;;;2.70;1.77;;;;;;;6.67;78.56;96761.54;1761135;81;25279;-76
2020/12/29 01:27:01;;;;;;;2.90;1.80;;;;;;;6.63;78.90;96768.86;1761267;81;25330;-76
2020/12/29 01:29:28;;;;;;;2.10;1.53;;;;;;;6.61;79.22;96767.41;1761337;81;25314;-76
2020/12/29 01:32:00;;;;;;;3.13;1.93;;;;;;;6.62;79.62;96759.88;1761322;81;25221;-76
2020/12/29 01:34:26;;;;;;;2.30;1.70;;;;;;;6.56;79.97;96760.06;1734519;81;25338;-77
2020/12/29 01:36:53;;;;;;;2.10;1.73;;;;;;;6.56;79.70;96757.45;1761201;81;25346;-76
2020/12/29 01:39:20;;;;;;;3.13;1.90;;;;;;;6.52;80.12;96761.85;1761197;81;25626;-77
2020/12/29 01:41:46;;;;;;;2.00;1.50;;;;;;;6.53;80.28;96760.88;1761145;81;25288;-77
2020/12/29 01:44:20;;;;;;;2.57;1.77;;;;;;;6.46;80.69;96757.61;1761259;81;25310;-77
2020/12/29 01:46:49;;;;;;;2.90;2.20;;;;;;;6.42;81.43;96756.79;1761196;81;25630;-77
2020/12/29 01:49:17;;;;;;;3.27;2.10;;;;;;;6.41;81.08;96763.01;1761126;81;25710;-76
2020/12/29 01:51:44;;;;;;;2.80;1.90;;;;;;;6.35;81.24;96756.66;1735585;81;25753;-77
2020/12/29 01:54:11;;;;;;;2.87;2.00;;;;;;;6.30;81.92;96744.55;1731334;82;25218;-76
2020/12/29 01:56:40;;;;;;;3.20;2.13;;;;;;;6.27;82.15;96742.30;1731042;82;25321;-77
2020/12/29 01:59:10;;;;;;;3.40;2.23;;;;;;;6.25;82.37;96741.62;1731159;82;25222;-77
2020/12/29 02:01:41;;;;;;;2.70;2.00;;;;;;;6.21;82.52;96734.61;1754312;81;25271;-77
2020/12/29 02:04:08;;;;;;;4.33;2.40;;;;;;;6.19;82.53;96743.59;1754316;81;25354;-77
2020/12/29 02:06:35;;;;;;;4.67;2.40;;;;;;;6.13;83.87;96743.73;1754227;81;25775;-77
2020/12/29 02:09:04;;;;;;;3.60;2.63;;;;;;;6.11;83.50;96741.78;1754259;81;25359;-77
2020/12/29 02:11:31;;;;;;;5.13;3.50;;;;;;;6.07;83.82;96744.40;1754249;81;25299;-77
2020/12/29 02:13:57;;;;;;;5.80;3.80;;;;;;;6.01;83.94;96739.81;1754283;81;25279;-76
2020/12/29 02:16:24;;;;;;;8.50;5.00;;;;;;;5.95;83.81;96742.06;1753668;81;25690;-77
2020/12/29 02:18:51;;;;;;;7.10;4.73;;;;;;;5.88;83.99;96745.45;1753834;81;25228;-77
2020/12/29 02:21:17;;;;;;;11.00;6.33;;;;;;;5.82;84.19;96741.70;1753703;81;25621;-77
2020/12/29 02:23:44;;;;;;;8.77;6.03;;;;;;;5.81;84.28;96742.67;1753603;81;25255;-77
2020/12/29 02:26:10;;;;;;;10.73;6.40;;;;;;;5.72;84.28;96738.43;1753606;81;25336;-76
2020/12/29 02:28:37;;;;;;;9.87;5.67;;;;;;;5.60;84.54;96729.25;1753955;81;25265;-76
2020/12/29 02:31:04;;;;;;;9.30;6.03;;;;;;;5.53;85.40;96739.50;1753807;81;25299;-76
2020/12/29 02:33:30;;;;;;;11.37;6.37;;;;;;;5.46;85.34;96734.59;1726227;81;25387;-77
2020/12/29 02:35:57;;;;;;;10.73;6.80;;;;;;;5.37;85.33;96731.95;1753800;81;25239;-77
2020/12/29 02:38:24;;;;;;;8.57;5.83;;;;;;;5.32;86.06;96737.32;1753777;81;25296;-77
2020/12/29 02:40:51;;;;;;;8.93;5.70;;;;;;;5.25;86.75;96730.62;1753750;81;25635;-76
2020/12/29 02:43:19;;;;;;;9.80;6.13;;;;;;;5.19;86.87;96734.67;1753811;81;25339;-76
2020/12/29 02:45:45;;;;;;;8.97;6.00;;;;;;;5.15;86.97;96735.94;1753698;81;25695;-77
2020/12/29 02:48:12;;;;;;;9.73;6.03;;;;;;;5.13;87.06;96739.69;1753815;81;25235;-77
2020/12/29 02:50:39;;;;;;;10.13;6.40;;;;;;;5.09;87.30;96740.95;1753502;81;25766;-77
2020/12/29 02:53:05;;;;;;;10.20;5.87;;;;;;;5.08;87.38;96735.41;1753737;81;25221;-77
2020/12/29 02:55:32;;;;;;;10.67;5.93;;;;;;;5.08;87.38;96736.24;1753760;81;25303;-77
2020/12/29 02:57:59;;;;;;;9.00;6.07;;;;;;;5.07;87.96;96737.70;1753706;81;25212;-77
2020/12/29 03:00:25;;;;;;;8.53;5.53;;;;;;;5.06;88.24;96737.36;1753790;81;25327;-77
2020/12/29 03:02:52;;;;;;;10.30;6.30;;;;;;;5.05;88.40;96737.85;1753622;81;25291;-77
2020/12/29 03:05:19;;;;;;;9.57;5.87;;;;;;;5.05;88.64;96734.44;1756331;81;25264;-77
2020/12/29 03:07:46;;;;;;;10.43;6.67;;;;;;;5.08;89.26;96738.02;1756881;81;25224;-77
2020/12/29 03:10:13;;;;;;;8.97;5.30;;;;;;;5.07;88.88;96739.81;1756908;81;25156;-78
2020/12/29 03:12:40;;;;;;;9.33;5.43;;;;;;;5.06;89.63;96738.19;1756922;81;25691;-78
2020/12/29 03:15:07;;;;;;;9.03;5.57;;;;;;;5.06;89.07;96739.50;1756769;81;25173;-78
2020/12/29 03:17:35;;;;;;;9.20;5.40;;;;;;;5.05;89.31;96744.86;1756875;81;25762;-78
2020/12/29 03:20:04;;;;;;;8.90;4.87;;;;;;;5.05;89.23;96744.36;1756900;81;25335;-78
2020/12/29 03:22:32;;;;;;;9.33;4.97;;;;;;;5.07;89.53;96742.91;1730826;81;25726;-78
2020/12/29 03:24:59;;;;;;;6.47;4.33;;;;;;;5.07;89.79;96745.52;1756846;81;25320;-77
2020/12/29 03:27:26;;;;;;;9.33;4.80;;;;;;;5.08;89.53;96748.43;1756714;81;25271;-78
2020/12/29 03:29:52;;;;;;;6.67;4.20;;;;;;;5.13;89.65;96749.62;1756900;81;25312;-77
2020/12/29 03:32:19;;;;;;;8.03;4.27;;;;;;;5.14;90.12;96753.03;1756777;81;25642;-77
2020/12/29 03:34:46;;;;;;;6.53;4.10;;;;;;;5.16;89.94;96751.92;1756874;81;25278;-78
2020/12/29 03:37:13;;;;;;;5.50;4.03;;;;;;;5.17;89.71;96757.94;1756821;81;25730;-77
2020/12/29 03:39:39;;;;;;;5.73;4.13;;;;;;;5.18;90.59;96759.58;1756844;81;25228;-78
2020/12/29 03:42:06;;;;;;;4.60;3.07;;;;;;;5.19;90.18;96762.03;1756765;81;25272;-79
2020/12/29 03:44:33;;;;;;;6.10;4.27;;;;;;;5.23;90.57;96770.35;1756898;81;25766;-79
2020/12/29 03:47:01;;;;;;;7.03;4.07;;;;;;;5.24;89.81;96773.77;1756848;81;25232;-79
2020/12/29 03:49:28;;;;;;;6.27;4.00;;;;;;;5.26;89.90;96773.95;1756871;81;25236;-79
2020/12/29 03:51:55;;;;;;;5.97;3.43;;;;;;;5.29;90.08;96778.02;1731086;81;25235;-79
2020/12/29 03:54:22;;;;;;;5.87;3.83;;;;;;;5.29;90.06;96780.62;1756942;81;25328;-79
2020/12/29 03:56:49;;;;;;;4.63;3.57;;;;;;;5.29;90.06;96781.94;1756882;81;25337;-80
2020/12/29 03:59:16;;;;;;;4.90;3.50;;;;;;;5.26;90.27;96775.72;1756971;81;25271;-80
2020/12/29 04:01:42;;;;;;;5.70;3.70;;;;;;;5.29;90.72;96771.51;1756796;81;25365;-79
2020/12/29 04:04:12;;;;;;;11.97;6.50;;;;;;;5.33;90.40;96772.81;1756043;81;25304;-80
2020/12/29 04:06:38;;;;;;;7.60;4.63;;;;;;;5.33;90.61;96772.81;1753558;81;25654;-80
2020/12/29 04:09:05;;;;;;;5.30;3.70;;;;;;;5.37;90.80;96780.67;1753690;81;25719;-80
2020/12/29 04:11:32;;;;;;;5.27;3.80;;;;;;;5.39;91.38;96782.13;1753633;81;25380;-80
2020/12/29 04:13:59;;;;;;;4.73;3.40;;;;;;;5.35;90.81;96783.92;1753653;81;25240;-80
2020/12/29 04:16:25;;;;;;;5.13;3.43;;;;;;;5.35;90.94;96788.64;1753510;81;25349;-79
2020/12/29 04:18:52;;;;;;;5.27;3.93;;;;;;;5.32;90.79;96787.64;1753641;81;25295;-79
2020/12/29 04:21:19;;;;;;;4.10;3.20;;;;;;;5.34;91.12;96783.58;1753689;81;25284;-80
2020/12/29 04:23:46;;;;;;;4.83;3.60;;;;;;;5.32;91.13;96788.14;1753470;81;25312;-79
2020/12/29 04:26:13;;;;;;;5.23;3.37;;;;;;;5.32;91.05;96782.93;1753580;81;25385;-79
2020/12/29 04:28:40;;;;;;;5.70;3.83;;;;;;;5.32;91.92;96785.53;1753664;81;25388;-79
2020/12/29 04:31:10;;;;;;;7.23;3.60;;;;;;;5.30;91.60;96777.06;1753584;81;25292;-77
2020/12/29 04:33:37;;;;;;;9.33;3.67;;;;;;;5.29;91.89;96780.13;1753696;81;25307;-79
2020/12/29 04:36:04;;;;;;;4.53;3.20;;;;;;;5.23;91.55;96778.63;1753591;81;25694;-79
2020/12/29 04:38:31;;;;;;;4.63;3.33;;;;;;;5.24;91.51;96786.80;1753625;81;25256;-79
2020/12/29 04:40:57;;;;;;;4.70;3.47;;;;;;;5.28;92.15;96785.50;1753549;81;25235;-80
2020/12/29 04:43:24;;;;;;;5.23;3.40;;;;;;;5.29;92.03;96783.23;1726318;81;25369;-80
2020/12/29 04:45:51;;;;;;;5.10;3.60;;;;;;;5.30;91.98;96786.99;1753640;81;25338;-79
2020/12/29 04:48:18;;;;;;;5.27;3.37;;;;;;;5.33;92.13;96783.24;1753611;81;25280;-79
2020/12/29 04:50:46;;;;;;;6.57;4.40;;;;;;;5.32;92.11;96780.33;1753706;81;25355;-80
2020/12/29 04:53:12;;;;;;;5.73;3.30;;;;;;;5.33;92.14;96776.26;1753447;81;25699;-79
2020/12/29 04:55:39;;;;;;;6.33;4.00;;;;;;;5.30;92.16;96772.66;1753469;81;25275;-78
2020/12/29 04:58:05;;;;;;;5.63;3.50;;;;;;;5.28;91.83;96779.82;1753509;81;25766;-79
2020/12/29 05:00:32;;;;;;;4.47;3.20;;;;;;;5.30;92.37;96781.78;1753583;81;25319;-79
2020/12/29 05:02:59;;;;;;;4.77;3.00;;;;;;;5.29;92.62;96783.23;1753470;81;25651;-79
2020/12/29 05:05:26;;;;;;;4.60;2.93;;;;;;;5.30;92.65;96786.19;1755443;81;25291;-79
2020/12/29 05:07:53;;;;;;;3.93;2.93;;;;;;;5.33;92.34;96789.76;1756690;81;25299;-79
2020/12/29 05:10:19;;;;;;;3.20;2.60;;;;;;;5.35;92.53;96783.43;1731081;81;25702;-79
2020/12/29 05:12:51;;;;;;;4.47;2.83;;;;;;;5.38;92.54;96784.42;1756875;81;25312;-78
2020/12/29 05:15:21;;;;;;;3.07;2.17;;;;;;;5.36;92.46;96795.97;1755822;81;25073;-78
2020/12/29 05:17:48;;;;;;;3.57;2.63;;;;;;;5.39;92.78;96787.84;1756673;81;25782;-78
2020/12/29 05:20:15;;;;;;;3.33;2.50;;;;;;;5.34;92.60;96789.61;1756757;81;25299;-79
2020/12/29 05:22:41;;;;;;;3.97;2.10;;;;;;;5.34;92.69;96791.41;1756789;81;25173;-78
2020/12/29 05:25:08;;;;;;;3.17;2.17;;;;;;;5.33;92.78;96801.48;1756731;81;25268;-78
2020/12/29 05:27:38;;;;;;;2.93;1.80;;;;;;;5.29;92.70;96798.88;1756689;81;25280;-79
2020/12/29 05:30:05;;;;;;;2.70;1.63;;;;;;;5.25;92.71;96791.86;1756748;81;25157;-78
2020/12/29 05:32:39;;;;;;;3.10;2.40;;;;;;;5.27;92.64;96799.52;1756735;81;25280;-79
2020/12/29 05:35:12;;;;;;;2.93;2.30;;;;;;;5.25;92.87;96799.67;1756818;81;25140;-78
2020/12/29 05:37:41;;;;;;;3.33;2.47;;;;;;;5.24;92.76;96811.55;1756694;81;25706;-78
2020/12/29 05:40:28;;;;;;;2.17;1.90;;;;;;;5.23;92.81;96813.81;1756407;81;25176;-78
2020/12/29 05:42:58;;;;;;;3.57;1.87;;;;;;;5.20;92.79;96811.86;1756650;81;25702;-78
2020/12/29 05:45:29;;;;;;;2.27;1.63;;;;;;;5.24;92.97;96809.75;1756675;81;25251;-78
2020/12/29 05:47:57;;;;;;;3.03;1.80;;;;;;;5.20;92.79;96808.44;1756821;81;25370;-79
2020/12/29 05:50:25;;;;;;;2.33;2.07;;;;;;;5.20;92.95;96814.46;1756814;81;25304;-79
2020/12/29 05:53:01;;;;;;;3.50;2.23;;;;;;;5.16;92.77;96823.57;1756816;81;25177;-78
2020/12/29 05:55:28;;;;;;;2.67;2.20;;;;;;;5.15;92.65;96832.34;1732100;81;25599;-79
2020/12/29 05:58:06;;;;;;;3.53;1.80;;;;;;;5.16;92.66;96840.50;1756956;81;25623;-79
2020/12/29 06:00:34;;;;;;;3.33;2.13;;;;;;;5.18;92.83;96842.96;1756921;81;25153;-79
2020/12/29 06:03:02;;;;;;;4.27;2.77;;;;;;;5.17;93.02;96846.52;1756809;81;25798;-78
2020/12/29 06:05:32;;;;;;;4.50;2.90;;;;;;;5.13;93.06;96851.23;1755492;81;25238;-79
2020/12/29 06:08:07;;;;;;;5.87;2.90;;;;;;;5.15;93.14;96864.11;1754075;81;25793;-79
2020/12/29 06:10:36;;;;;;;2.83;2.07;;;;;;;5.10;92.97;96872.87;1754315;81;25549;-79
2020/12/29 06:13:05;;;;;;;3.27;2.60;;;;;;;5.11;93.62;96884.91;1754316;81;25627;-78
2020/12/29 06:15:36;;;;;;;3.57;2.57;;;;;;;5.10;93.46;96892.41;1754270;81;25319;-79
2020/12/29 06:18:07;;;;;;;3.90;2.70;;;;;;;5.08;93.58;96896.47;1753407;81;25153;-78
2020/12/29 06:20:52;;;;;;;3.03;2.53;;;;;;;5.06;93.44;96900.17;1754074;81;25726;-79
2020/12/29 06:23:19;;;;;;;3.00;2.50;;;;;;;5.06;93.65;96901.02;1754324;81;25335;-78
2020/12/29 06:25:48;;;;;;;3.90;2.80;;;;;;;5.03;93.41;96911.73;1754104;81;25663;-78
2020/12/29 06:28:18;;;;;;;3.93;2.77;;;;;;;5.06;93.82;96915.34;1728794;81;25299;-79
2020/12/29 06:30:45;;;;;;;6.27;3.70;;;;;;;5.02;93.62;96920.50;1754173;81;25138;-79
2020/12/29 06:33:17;;;;;;;10.90;6.40;;;;;;;5.03;93.68;96929.97;1754082;81;25181;-78
2020/12/29 06:35:46;;;;;;;12.10;7.27;;;;;;;5.04;93.57;96934.19;1754110;81;25390;-78
2020/12/29 06:38:25;;;;;;;10.53;6.70;;;;;;;5.09;93.66;96937.66;1754338;81;25311;-78
2020/12/29 06:40:52;;;;;;;15.87;9.40;;;;;;;5.08;93.62;96952.48;1718025;81;25181;-79
2020/12/29 06:43:19;;;;;;;29.80;15.20;;;;;;;5.10;93.59;96957.54;1728787;81;25137;-79
2020/12/29 06:45:46;;;;;;;23.90;12.43;;;;;;;5.10;93.48;96958.34;1754095;81;25619;-79
2020/12/29 06:48:19;;;;;;;16.90;11.57;;;;;;;5.13;93.58;96963.27;1754252;81;25172;-78
2020/12/29 06:50:46;;;;;;;6.90;4.77;;;;;;;5.12;93.44;96966.83;1754294;81;25308;-78
2020/12/29 06:53:16;;;;;;;6.80;5.00;;;;;;;5.14;93.41;96966.68;1754160;81;25141;-78
2020/12/29 06:55:48;;;;;;;6.00;4.83;;;;;;;5.15;93.24;96976.95;1754258;81;25196;-79
2020/12/29 06:58:33;;;;;;;22.70;15.23;;;;;;;5.14;93.12;96990.13;1753871;81;25648;-77
2020/12/29 07:01:27;;;;;;;9.67;7.20;;;;;;;5.14;93.02;97000.06;1754208;81;25552;-79
2020/12/29 07:04:06;;;;;;;14.07;11.20;;;;;;;5.16;92.94;97008.56;1754312;81;25090;-78
2020/12/29 07:06:36;;;;;;;9.47;6.97;;;;;;;5.12;92.75;97020.73;1753784;81;25351;-79
2020/12/29 07:09:25;;;;;;;7.47;6.00;;;;;;;5.12;92.69;97024.15;1724779;81;25276;-79
2020/12/29 07:12:04;;;;;;;7.20;5.50;;;;;;;5.13;92.54;97034.11;1753727;81;25212;-78
2020/12/29 07:14:33;;;;;;;17.13;10.00;;;;;;;5.10;92.32;97038.31;1752158;81;25802;-79
2020/12/29 07:17:05;;;;;;;12.83;8.07;;;;;;;5.09;92.25;97050.49;1753687;81;25785;-79
2020/12/29 07:19:38;;;;;;;7.27;6.17;;;;;;;5.07;91.89;97044.62;1753744;81;25176;-78
2020/12/29 07:22:16;;;;;;;9.80;6.90;;;;;;;5.01;91.71;97051.71;1690057;81;25187;-79
2020/12/29 07:24:44;;;;;;;9.60;7.57;;;;;;;4.98;91.56;97064.56;1753529;81;25730;-79
2020/12/29 07:27:11;;;;;;;9.40;6.67;;;;;;;4.96;91.40;97071.71;1712258;81;25717;-79
2020/12/29 07:29:54;;;;;;;8.63;6.23;;;;;;;4.94;90.98;97080.13;1688685;81;25920;-81
2020/12/29 07:32:22;;;;;;;8.50;6.70;;;;;;;4.91;90.58;97085.66;1753661;81;25082;-78
2020/12/29 07:34:49;;;;;;;48.83;29.37;;;;;;;4.88;90.07;97091.16;1754068;81;25305;-78
2020/12/29 07:37:21;;;;;;;91.43;49.60;;;;;;;4.81;89.80;97106.54;1754093;81;25296;-78
2020/12/29 07:39:48;;;;;;;116.43;61.83;;;;;;;4.75;89.44;97103.20;1754461;81;25161;-79
2020/12/29 07:42:15;;;;;;;21.60;14.57;;;;;;;4.71;89.50;97110.98;1754008;81;25665;-78
2020/12/29 07:44:43;;;;;;;19.60;12.60;;;;;;;4.62;89.70;97110.03;1753861;81;25336;-80
2020/12/29 07:47:10;;;;;;;16.10;10.03;;;;;;;4.61;89.62;97118.83;1753774;81;25098;-78
2020/12/29 07:49:40;;;;;;;14.43;9.57;;;;;;;4.60;89.68;97124.17;1753698;81;25177;-79
2020/12/29 07:52:07;;;;;;;18.60;11.90;;;;;;;4.56;89.57;97118.44;1753885;81;25177;-79
2020/12/29 07:54:34;;;;;;;28.87;14.13;;;;;;;4.55;89.66;97128.98;1754100;81;25165;-78
2020/12/29 07:57:02;;;;;;;43.17;17.17;;;;;;;4.54;89.65;97133.38;1754107;81;25624;-78
2020/12/29 07:59:29;;;;;;;25.23;12.73;;;;;;;4.53;89.51;97133.52;1688620;81;25090;-79
2020/12/29 08:01:58;;;;;;;23.47;11.97;;;;;;;4.53;89.40;97133.52;1726193;81;25248;-80
2020/12/29 08:04:32;;;;;;;20.53;11.10;;;;;;;4.56;89.11;97138.42;1725273;81;25350;-80
2020/12/29 08:07:01;;;;;;;19.40;11.43;;;;;;;4.54;88.81;97146.86;1753683;81;25215;-79
2020/12/29 08:09:28;;;;;;;11.53;8.47;;;;;;;4.52;88.37;97147.48;1753360;81;25165;-77
2020/12/29 08:12:03;;;;;;;24.93;12.30;;;;;;;4.53;87.71;97156.95;1725042;81;25125;-78
2020/12/29 08:14:30;;;;;;;19.83;11.33;;;;;;;4.45;87.80;97153.25;1753557;81;25652;-78
2020/12/29 08:17:05;;;;;;;18.80;10.83;;;;;;;4.44;87.81;97168.55;1753717;81;25085;-78
2020/12/29 08:19:32;;;;;;;27.03;13.43;;;;;;;4.44;87.63;97176.81;1752736;81;25220;-79
2020/12/29 08:22:05;;;;;;;18.37;10.67;;;;;;;4.42;87.77;97176.98;1753674;81;25205;-78
2020/12/29 08:24:32;;;;;;;17.93;9.83;;;;;;;4.46;87.48;97174.42;1713235;81;25177;-78
2020/12/29 08:26:58;;;;;;;11.43;8.70;;;;;;;4.47;87.51;97181.74;1753312;81;25652;-78
2020/12/29 08:29:30;;;;;;;22.03;11.43;;;;;;;4.50;87.29;97189.77;1753637;81;25145;-78
2020/12/29 08:32:10;;;;;;;16.77;10.17;;;;;;;4.48;87.02;97187.79;1727005;81;25161;-80
2020/12/29 08:34:42;;;;;;;13.77;9.70;;;;;;;4.50;86.78;97197.08;1753740;81;25117;-78
2020/12/29 08:37:09;;;;;;;40.13;16.73;;;;;;;4.50;86.65;97204.08;1726677;81;25243;-78
2020/12/29 08:40:07;;;;;;;23.33;13.07;;;;;;;4.49;85.66;97211.54;1753469;81;25702;-78
2020/12/29 08:42:35;;;;;;;14.83;10.00;;;;;;;4.48;85.50;97215.12;1751294;81;25125;-78
2020/12/29 08:45:08;;;;;;;28.97;16.53;;;;;;;4.42;85.72;97212.58;1754286;81;25769;-78
2020/12/29 08:47:36;;;;;;;24.80;13.70;;;;;;;4.40;86.03;97212.72;1725618;81;25686;-79
2020/12/29 08:50:26;;;;;;;14.80;10.20;;;;;;;4.44;85.95;97220.60;1712065;81;25327;-79
2020/12/29 08:53:07;;;;;;;13.67;9.23;;;;;;;4.51;85.54;97225.23;1818745;78;26914;-79
2020/12/29 08:55:36;;;;;;;12.07;8.93;;;;;;;4.42;85.56;97232.94;1789811;79;25297;-78
2020/12/29 08:58:03;;;;;;;25.40;13.43;;;;;;;4.41;85.45;97235.19;1789063;79;25249;-78
2020/12/29 09:00:31;;;;;;;23.33;12.57;;;;;;;4.43;85.12;97233.27;1789498;80;25217;-78
2020/12/29 09:02:57;;;;;;;13.10;9.30;;;;;;;4.47;85.03;97237.70;1789597;79;25653;-79
2020/12/29 09:05:29;;;;;;;20.20;12.40;;;;;;;4.48;84.58;97241.97;1763507;80;25213;-79
2020/12/29 09:07:56;;;;;;;19.10;13.27;;;;;;;4.52;84.37;97242.50;1790395;79;25759;-78
2020/12/29 09:10:23;;;;;;;17.60;10.83;;;;;;;4.53;84.13;97253.27;1789098;79;25324;-79
2020/12/29 09:12:50;;;;;;;21.20;13.93;;;;;;;4.57;83.95;97259.83;1789420;80;25787;-79
2020/12/29 09:15:31;;;;;;;17.87;10.83;;;;;;;4.62;82.92;97253.72;1789515;79;25297;-79
2020/12/29 09:17:59;;;;;;;19.60;11.03;;;;;;;4.64;82.27;97263.50;1789531;79;25716;-79
2020/12/29 09:20:30;;;;;;;27.80;12.63;;;;;;;4.64;81.70;97267.41;1789715;79;25219;-79
2020/12/29 09:23:11;;;;;;;78.37;26.57;;;;;;;4.67;81.54;97265.83;1789589;79;25264;-78
2020/12/29 09:25:42;;;;;;;41.30;19.63;;;;;;;4.73;81.13;97280.91;1789488;79;25351;-77
2020/12/29 09:28:24;;;;;;;36.87;19.87;;;;;;;4.77;80.70;97288.77;1789484;79;25317;-79
2020/12/29 09:31:10;;;;;;;19.67;11.63;;;;;;;4.85;79.99;97298.50;1789395;79;25312;-79
2020/12/29 09:33:38;;;;;;;16.17;10.57;;;;;;;4.89;78.86;97299.84;1789587;79;25287;-78
2020/12/29 09:36:24;;;;;;;19.73;12.03;;;;;;;4.89;77.98;97300.34;1789425;80;25142;-78
2020/12/29 09:38:54;;;;;;;18.93;11.27;;;;;;;4.92;77.71;97297.45;1766908;80;25292;-79
2020/12/29 09:41:21;;;;;;;26.87;15.17;;;;;;;4.94;78.03;97313.27;1789732;79;25280;-78
2020/12/29 09:43:48;;;;;;;26.33;14.37;;;;;;;4.98;78.40;97313.84;1789814;80;25676;-78
2020/12/29 09:46:15;;;;;;;30.23;15.33;;;;;;;5.04;78.25;97316.34;1789858;79;25316;-78
2020/12/29 09:48:44;;;;;;;32.03;17.33;;;;;;;5.06;78.28;97313.95;1788898;79;25624;-78
2020/12/29 09:51:13;;;;;;;9.70;7.00;;;;;;;5.09;78.49;97325.37;1788638;79;25415;-79
2020/12/29 09:53:40;;;;;;;17.13;10.90;;;;;;;5.15;78.28;97328.73;1713111;82;25806;-78
2020/12/29 09:56:07;;;;;;;10.87;7.60;;;;;;;5.23;77.87;97340.22;1742180;82;25333;-78
2020/12/29 09:58:37;;;;;;;11.63;8.10;;;;;;;5.27;77.73;97346.81;1737605;82;25289;-79
2020/12/29 10:01:05;;;;;;;13.10;8.43;;;;;;;5.34;77.83;97350.48;1737629;82;25294;-79
2020/12/29 10:03:32;;;;;;;10.67;7.27;;;;;;;5.43;77.20;97353.56;1737319;82;25648;-79
2020/12/29 10:05:59;;;;;;;14.40;8.30;;;;;;;5.50;77.06;97354.63;1737389;82;25267;-78
2020/12/29 10:08:26;;;;;;;24.90;13.03;;;;;;;5.57;76.35;97353.56;1710944;82;25179;-78
2020/12/29 10:10:53;;;;;;;18.33;10.87;;;;;;;5.65;75.75;97359.35;1737341;82;25309;-77
2020/12/29 10:13:20;;;;;;;15.13;9.90;;;;;;;5.73;74.83;97359.45;1737383;82;25298;-78
2020/12/29 10:15:48;;;;;;;11.67;8.00;;;;;;;5.83;74.55;97358.11;1712129;82;25685;-79
2020/12/29 10:18:15;;;;;;;14.07;9.10;;;;;;;5.84;75.64;97356.67;1737004;82;25360;-79
2020/12/29 10:20:42;;;;;;;9.93;7.70;;;;;;;6.00;75.44;97355.24;1737251;82;25238;-78
2020/12/29 10:23:09;;;;;;;9.13;6.90;;;;;;;6.16;74.80;97352.00;1737352;82;25223;-78
2020/12/29 10:25:36;;;;;;;8.30;6.47;;;;;;;6.29;73.56;97353.28;1722501;82;25224;-77
2020/12/29 10:28:03;;;;;;;7.83;6.20;;;;;;;6.39;73.75;97351.10;1707807;82;25159;-79
2020/12/29 10:30:30;;;;;;;9.93;7.37;;;;;;;6.49;73.16;97352.66;1707974;82;25259;-78
2020/12/29 10:32:57;;;;;;;12.80;7.50;;;;;;;6.60;72.68;97357.31;1708021;82;25233;-79
2020/12/29 10:35:24;;;;;;;15.17;9.80;;;;;;;6.65;72.15;97358.53;1708120;82;25242;-79
2020/12/29 10:37:52;;;;;;;14.57;9.37;;;;;;;6.66;72.19;97361.45;1707915;82;25183;-79
2020/12/29 10:40:19;;;;;;;12.93;9.13;;;;;;;6.75;72.35;97368.06;1707511;82;25308;-78
2020/12/29 10:42:46;;;;;;;12.43;8.83;;;;;;;6.84;70.88;97370.59;1707457;82;25214;-78
2020/12/29 10:45:13;;;;;;;10.20;7.40;;;;;;;7.01;69.76;97374.66;1707393;82;25303;-78
2020/12/29 10:47:40;;;;;;;7.43;5.43;;;;;;;7.01;69.89;97384.61;1707263;82;25151;-78
2020/12/29 10:50:07;;;;;;;7.70;5.87;;;;;;;7.02;69.50;97388.88;1707159;82;25368;-78
2020/12/29 10:52:33;;;;;;;6.03;5.27;;;;;;;7.15;68.79;97398.11;1724058;82;25284;-78
2020/12/29 10:55:00;;;;;;;7.57;6.50;;;;;;;7.10;68.41;97388.10;1736996;82;26402;-77
2020/12/29 10:57:26;;;;;;;6.90;5.03;;;;;;;7.08;68.16;97401.01;1737052;82;25336;-77
2020/12/29 10:59:53;;;;;;;7.97;6.07;;;;;;;7.04;68.67;97410.45;1737015;82;25619;-76
2020/12/29 11:02:20;;;;;;;8.77;5.60;;;;;;;7.01;68.50;97410.75;1736891;82;25321;-76
2020/12/29 11:04:47;;;;;;;15.60;9.20;;;;;;;7.00;68.56;97423.47;1737063;82;25300;-77
2020/12/29 11:07:13;;;;;;;9.63;6.17;;;;;;;6.94;68.46;97418.86;1736863;82;25672;-77
2020/12/29 11:09:40;;;;;;;26.70;11.57;;;;;;;6.87;68.94;97419.95;1736797;82;25095;-77
2020/12/29 11:12:08;;;;;;;20.23;10.60;;;;;;;6.84;68.80;97422.05;1736877;82;25276;-78
2020/12/29 11:14:35;;;;;;;14.23;8.53;;;;;;;6.76;68.61;97433.23;1737071;82;25731;-77
2020/12/29 11:17:02;;;;;;;10.77;7.10;;;;;;;6.68;68.74;97424.81;1737018;82;25292;-77
2020/12/29 11:19:29;;;;;;;11.07;7.73;;;;;;;6.66;68.39;97437.70;1737134;82;25763;-76
2020/12/29 11:21:56;;;;;;;10.63;6.97;;;;;;;6.54;69.02;97434.48;1736903;82;25363;-77
2020/12/29 11:24:24;;;;;;;13.33;8.37;;;;;;;6.53;68.60;97432.83;1736972;82;25293;-77
2020/12/29 11:26:50;;;;;;;12.60;6.50;;;;;;;6.44;69.03;97438.95;1736850;82;25715;-77
2020/12/29 11:29:17;;;;;;;14.07;8.87;;;;;;;6.41;68.96;97443.16;1736724;82;25328;-77
2020/12/29 11:31:44;;;;;;;11.33;7.80;;;;;;;6.28;69.68;97444.80;1737224;82;25236;-79
2020/12/29 11:34:11;;;;;;;8.50;6.10;;;;;;;6.21;69.87;97452.88;1711815;82;25240;-77
2020/12/29 11:36:38;;;;;;;11.77;7.70;;;;;;;6.18;69.87;97454.47;1736919;82;25292;-78
2020/12/29 11:39:05;;;;;;;9.10;6.20;;;;;;;6.14;70.06;97464.38;1736850;82;25782;-79
2020/12/29 11:41:32;;;;;;;10.10;6.43;;;;;;;6.14;69.98;97465.69;1737020;82;25210;-79
2020/12/29 11:43:59;;;;;;;11.60;7.67;;;;;;;6.10;70.29;97468.22;1736887;82;25320;-77